createdAt,value
2022-12-27T00:00:19.425Z,39.27
2022-12-27T00:05:15.688Z,35.63
2022-12-27T00:10:11.798Z,34.40
2022-12-27T00:15:05.732Z,35.53
2022-12-27T00:19:58.947Z,35.67
2022-12-27T00:24:52.711Z,33.83
2022-12-27T00:29:47.273Z,29.97
2022-12-27T00:34:40.591Z,28.83
2022-12-27T00:39:33.800Z,27.77
2022-12-27T00:44:27.081Z,26.47
2022-12-27T00:49:26.340Z,25.07
2022-12-27T00:54:19.893Z,25.57
2022-12-27T00:59:13.367Z,26.07
2022-12-27T01:04:07.512Z,26.03
2022-12-27T01:09:03.281Z,24.43
2022-12-27T01:14:00.516Z,23.97
2022-12-27T01:18:57.573Z,22.63
2022-12-27T01:23:51.127Z,23.93
2022-12-27T01:28:45.922Z,26.30
2022-12-27T01:33:39.763Z,25.37
2022-12-27T01:38:33.077Z,29.73
2022-12-27T01:43:39.265Z,26.07
2022-12-27T01:48:34.022Z,26.60
2022-12-27T01:53:31.347Z,26.67
2022-12-27T01:58:29.876Z,22.50
2022-12-27T02:03:28.444Z,50.17
2022-12-27T02:08:38.960Z,25.03
2022-12-27T02:13:35.944Z,22.95
2022-12-27T02:18:29.477Z,20.93
2022-12-27T02:24:04.674Z,21.07
2022-12-27T02:29:11.560Z,19.83
2022-12-27T02:34:11.565Z,17.17
2022-12-27T02:39:06.684Z,16.85
2022-12-27T02:44:17.257Z,19.77
2022-12-27T02:49:43.847Z,20.58
2022-12-27T02:54:54.070Z,24.37
2022-12-27T03:00:21.120Z,28.10
2022-12-27T03:05:26.008Z,28.07
2022-12-27T03:10:45.615Z,29.60
2022-12-27T03:15:57.431Z,23.70
2022-12-27T03:21:09.871Z,22.73
2022-12-27T03:26:05.348Z,22.03
2022-12-27T03:31:21.507Z,22.80
2022-12-27T03:36:37.656Z,23.07
2022-12-27T03:41:53.271Z,24.63
2022-12-27T03:46:47.534Z,21.63
2022-12-27T03:51:46.069Z,21.20
2022-12-27T03:56:41.942Z,24.07
2022-12-27T04:01:36.361Z,20.53
2022-12-27T04:06:29.765Z,23.07
2022-12-27T04:11:41.732Z,22.73
2022-12-27T04:16:52.373Z,22.67
2022-12-27T04:22:03.038Z,24.58
2022-12-27T04:27:15.385Z,27.83
2022-12-27T04:32:26.245Z,28.87
2022-12-27T04:37:21.285Z,22.45
2022-12-27T04:42:33.464Z,27.73
2022-12-27T04:47:44.632Z,28.47
2022-12-27T04:57:50.510Z,29.00
2022-12-27T05:02:43.977Z,24.33
2022-12-27T05:07:56.042Z,30.77
2022-12-27T05:13:04.494Z,22.90
2022-12-27T05:17:58.953Z,21.43
2022-12-27T05:23:09.467Z,23.40
2022-12-27T05:28:04.199Z,24.25
2022-12-27T05:32:57.510Z,26.60
2022-12-27T05:37:54.851Z,26.80
2022-12-27T05:42:48.474Z,31.03
2022-12-27T05:47:43.628Z,25.17
2022-12-27T05:52:40.983Z,28.07
2022-12-27T05:57:34.752Z,36.07
2022-12-27T06:02:28.200Z,40.03
2022-12-27T06:07:23.044Z,27.50
2022-12-27T06:12:16.376Z,22.73
2022-12-27T06:17:09.601Z,24.20
2022-12-27T06:22:03.043Z,42.40
2022-12-27T06:26:57.623Z,25.93
2022-12-27T06:31:51.088Z,36.87
2022-12-27T06:36:49.918Z,35.17
2022-12-27T06:41:43.456Z,30.43
2022-12-27T06:46:38.378Z,35.27
2022-12-27T06:51:31.889Z,30.20
2022-12-27T06:56:25.081Z,29.67
2022-12-27T07:01:22.340Z,29.77
2022-12-27T07:06:17.075Z,34.73
2022-12-27T07:11:12.724Z,53.83
2022-12-27T07:16:06.801Z,56.50
2022-12-27T07:21:06.559Z,48.67
2022-12-27T07:26:08.145Z,44.70
2022-12-27T07:31:10.470Z,45.87
2022-12-27T07:36:05.650Z,61.03
2022-12-27T07:41:00.394Z,141.43
2022-12-27T07:45:55.282Z,135.80
2022-12-27T07:50:55.605Z,143.33
2022-12-27T07:55:49.068Z,133.20
2022-12-27T08:00:44.475Z,130.53
2022-12-27T08:05:39.564Z,91.53
2022-12-27T08:10:34.121Z,73.50
2022-12-27T08:15:27.707Z,48.90
2022-12-27T08:20:23.383Z,37.87
2022-12-27T08:25:19.526Z,36.57
2022-12-27T08:30:13.710Z,28.27
2022-12-27T08:35:41.731Z,21.40
2022-12-27T08:40:24.624Z,18.85
2022-12-27T08:45:18.348Z,16.67
2022-12-27T08:50:14.133Z,15.00
2022-12-27T08:55:08.914Z,13.00
2022-12-27T09:00:09.798Z,13.77
2022-12-27T09:05:03.210Z,13.95
2022-12-27T09:09:56.899Z,13.27
2022-12-27T09:14:51.221Z,13.50
2022-12-27T09:19:46.118Z,15.05
2022-12-27T09:24:39.468Z,15.18
2022-12-27T09:29:32.925Z,14.38
2022-12-27T09:34:29.423Z,15.32
2022-12-27T09:39:38.045Z,15.52
2022-12-27T09:44:39.440Z,16.73
2022-12-27T09:49:36.828Z,11.77
2022-12-27T09:54:41.274Z,13.27
2022-12-27T09:59:46.339Z,12.98
2022-12-27T10:05:17.672Z,11.48
2022-12-27T10:10:02.168Z,9.85
2022-12-27T10:15:17.630Z,11.95
2022-12-27T10:20:22.929Z,9.27
2022-12-27T10:25:20.671Z,9.13
2022-12-27T10:30:20.015Z,10.55
2022-12-27T10:35:19.275Z,12.00
2022-12-27T10:40:27.628Z,15.30
2022-12-27T10:45:27.661Z,10.55
2022-12-27T10:50:27.502Z,10.20
2022-12-27T10:55:35.547Z,11.50
2022-12-27T11:00:34.861Z,10.75
2022-12-27T11:05:30.235Z,10.80
2022-12-27T11:10:26.107Z,11.68
2022-12-27T11:15:21.078Z,10.45
2022-12-27T11:20:26.818Z,10.13
2022-12-27T11:25:27.468Z,9.75
2022-12-27T11:30:30.094Z,10.65
2022-12-27T11:35:24.640Z,10.10
2022-12-27T11:40:33.616Z,11.15
2022-12-27T11:45:38.089Z,11.13
2022-12-27T11:50:44.548Z,13.57
2022-12-27T11:55:58.824Z,11.43
2022-12-27T12:01:05.640Z,11.70
2022-12-27T12:06:10.025Z,12.57
2022-12-27T12:11:16.725Z,12.07
2022-12-27T12:16:46.673Z,12.25
2022-12-27T12:21:56.076Z,11.73
2022-12-27T12:27:03.142Z,11.40
2022-12-27T12:32:25.293Z,11.55
2022-12-27T12:37:32.130Z,11.85
2022-12-27T12:42:48.593Z,12.25
2022-12-27T12:48:06.148Z,12.23
2022-12-27T12:53:27.091Z,13.68
2022-12-27T12:58:40.318Z,12.10
2022-12-27T13:04:03.496Z,14.10
2022-12-27T13:09:10.367Z,13.15
2022-12-27T13:14:30.154Z,12.77
2022-12-27T13:19:43.174Z,13.88
2022-12-27T13:24:52.099Z,14.15
2022-12-27T13:30:04.531Z,12.48
2022-12-27T13:35:20.190Z,14.95
2022-12-27T13:40:30.467Z,12.88
2022-12-27T13:45:40.372Z,13.00
2022-12-27T13:50:54.198Z,13.37
2022-12-27T13:55:57.537Z,12.43
2022-12-27T14:01:01.333Z,15.68
2022-12-27T14:06:33.199Z,15.80
2022-12-27T14:11:40.247Z,14.15
2022-12-27T14:16:42.817Z,14.10
2022-12-27T14:21:57.421Z,12.85
2022-12-27T14:27:18.932Z,15.40
2022-12-27T14:32:41.217Z,11.45
2022-12-27T14:38:12.992Z,11.57
2022-12-27T14:43:50.989Z,14.05
2022-12-27T14:49:12.712Z,18.10
2022-12-27T14:54:46.929Z,16.15
2022-12-27T14:59:51.810Z,18.40
2022-12-27T15:05:01.558Z,12.68
2022-12-27T15:10:05.917Z,11.13
2022-12-27T15:15:16.816Z,11.43
2022-12-27T15:20:33.560Z,12.85
2022-12-27T15:25:44.184Z,13.35
2022-12-27T15:30:48.342Z,11.13
2022-12-27T15:35:52.892Z,11.63
2022-12-27T15:41:15.659Z,8.95
2022-12-27T15:46:24.259Z,13.25
2022-12-27T15:51:31.101Z,10.23
2022-12-27T15:56:44.583Z,11.77
2022-12-27T16:01:39.350Z,11.15
2022-12-27T16:06:58.952Z,10.45
2022-12-27T16:12:05.891Z,11.68
2022-12-27T16:17:24.626Z,10.93
2022-12-27T16:22:26.549Z,14.32
2022-12-27T16:27:31.443Z,10.20
2022-12-27T16:32:30.911Z,9.13
2022-12-27T16:37:31.401Z,8.00
2022-12-27T16:42:41.210Z,8.20
2022-12-27T16:48:03.512Z,9.50
2022-12-27T16:53:10.194Z,7.97
2022-12-27T16:58:33.950Z,8.93
2022-12-27T17:03:33.720Z,8.20
2022-12-27T17:08:27.484Z,7.18
2022-12-27T17:13:24.398Z,11.20
2022-12-27T17:18:28.886Z,11.85
2022-12-27T17:23:23.469Z,12.05
2022-12-27T17:28:26.401Z,7.93
2022-12-27T17:33:37.677Z,8.15
2022-12-27T17:38:44.628Z,8.40
2022-12-27T17:44:06.582Z,9.75
2022-12-27T17:49:01.882Z,10.60
2022-12-27T17:54:13.860Z,10.75
2022-12-27T17:59:14.622Z,10.57
2022-12-27T18:04:09.678Z,10.25
2022-12-27T18:09:03.428Z,10.77
2022-12-27T18:14:00.793Z,10.63
2022-12-27T18:19:00.266Z,7.80
2022-12-27T18:23:57.014Z,9.23
2022-12-27T18:28:50.596Z,9.55
2022-12-27T18:33:47.126Z,10.30
2022-12-27T18:38:45.920Z,8.77
2022-12-27T18:43:46.346Z,8.48
2022-12-27T18:53:40.830Z,8.00
2022-12-27T18:59:04.678Z,7.78
2022-12-27T19:04:25.010Z,10.75
2022-12-27T19:09:20.992Z,8.07
2022-12-27T19:14:22.999Z,7.65
2022-12-27T19:19:21.089Z,7.30
2022-12-27T19:24:39.168Z,7.55
2022-12-27T19:29:39.406Z,6.55
2022-12-27T19:34:44.856Z,7.03
2022-12-27T19:39:40.386Z,6.55
2022-12-27T19:44:35.803Z,5.78
2022-12-27T19:49:43.117Z,6.80
2022-12-27T19:54:37.074Z,7.22
2022-12-27T19:59:30.293Z,6.43
2022-12-27T20:04:25.147Z,6.10
2022-12-27T20:09:20.645Z,6.97
2022-12-27T20:14:14.813Z,6.70
2022-12-27T20:19:08.242Z,7.00
2022-12-27T20:24:02.932Z,7.43
2022-12-27T20:28:56.219Z,6.40
2022-12-27T20:33:53.425Z,6.15
2022-12-27T20:38:47.799Z,5.40
2022-12-27T20:43:45.762Z,6.30
2022-12-27T20:48:40.281Z,5.43
2022-12-27T20:53:33.740Z,5.53
2022-12-27T20:58:27.297Z,5.78
2022-12-27T21:03:22.027Z,5.45
2022-12-27T21:08:20.123Z,5.90
2022-12-27T21:13:13.401Z,5.60
2022-12-27T21:18:09.640Z,5.70
2022-12-27T21:23:04.358Z,5.82
2022-12-27T21:27:57.824Z,6.68
2022-12-27T21:32:51.171Z,6.78
2022-12-27T21:37:44.508Z,6.10
2022-12-27T21:42:39.183Z,6.15
2022-12-27T21:47:32.534Z,6.30
2022-12-27T21:52:25.721Z,5.40
2022-12-27T21:57:19.008Z,6.45
2022-12-27T22:02:17.196Z,6.53
2022-12-27T22:07:10.516Z,8.88
2022-12-27T22:12:03.810Z,7.28
2022-12-27T22:17:00.166Z,7.57
2022-12-27T22:21:54.808Z,6.15
2022-12-27T22:26:50.418Z,5.80
2022-12-27T22:31:44.113Z,8.07
2022-12-27T22:36:40.956Z,6.55
2022-12-27T22:41:37.896Z,6.25
2022-12-27T22:46:58.668Z,6.20
2022-12-27T22:51:48.283Z,6.10
2022-12-27T22:56:44.081Z,6.03
2022-12-27T23:01:37.527Z,6.57
2022-12-27T23:06:32.378Z,6.47
2022-12-27T23:11:28.098Z,6.68
2022-12-27T23:16:22.783Z,7.43
2022-12-27T23:21:20.731Z,7.30
2022-12-27T23:26:19.939Z,7.43
2022-12-27T23:31:14.656Z,7.35
2022-12-27T23:36:10.095Z,6.78
2022-12-27T23:41:05.725Z,8.05
2022-12-27T23:46:05.918Z,8.07
2022-12-27T23:50:59.296Z,8.93
2022-12-27T23:55:58.348Z,7.82
